sensor_id;sensor_type;location;lat;lon;timestamp;P1;durP1;ratioP1;P2;durP2;ratioP2
70126;SDS011;57491;42.694;23.314;2022-10-19T00:01:34;19.17;;;9.27;;
70126;SDS011;57491;42.694;23.314;2022-10-19T00:04:02;17.23;;;10.13;;
70126;SDS011;57491;42.694;23.314;2022-10-19T00:06:30;16.85;;;8.80;;
70126;SDS011;57491;42.694;23.314;2022-10-19T00:09:01;15.27;;;9.75;;
70126;SDS011;57491;42.694;23.314;2022-10-19T00:11:31;16.50;;;10.18;;
70126;SDS011;57491;42.694;23.314;2022-10-19T00:16:26;18.73;;;9.95;;
70126;SDS011;57491;42.694;23.314;2022-10-19T00:18:56;21.05;;;10.07;;
70126;SDS011;57491;42.694;23.314;2022-10-19T00:21:24;15.23;;;9.43;;
70126;SDS011;57491;42.694;23.314;2022-10-19T00:26:20;16.03;;;8.57;;
70126;SDS011;57491;42.694;23.314;2022-10-19T00:28:47;16.92;;;9.18;;
70126;SDS011;57491;42.694;23.314;2022-10-19T00:31:15;13.20;;;8.38;;
70126;SDS011;57491;42.694;23.314;2022-10-19T00:33:43;13.60;;;8.05;;
70126;SDS011;57491;42.694;23.314;2022-10-19T00:36:14;14.07;;;7.88;;
70126;SDS011;57491;42.694;23.314;2022-10-19T00:38:43;13.23;;;8.95;;
70126;SDS011;57491;42.694;23.314;2022-10-19T00:41:10;16.25;;;8.57;;
70126;SDS011;57491;42.694;23.314;2022-10-19T00:43:54;12.35;;;8.85;;
70126;SDS011;57491;42.694;23.314;2022-10-19T00:46:24;12.45;;;7.18;;
70126;SDS011;57491;42.694;23.314;2022-10-19T00:48:58;11.05;;;6.97;;
70126;SDS011;57491;42.694;23.314;2022-10-19T00:51:27;12.27;;;7.22;;
70126;SDS011;57491;42.694;23.314;2022-10-19T00:53:57;12.45;;;7.78;;
70126;SDS011;57491;42.694;23.314;2022-10-19T00:56:24;11.43;;;6.95;;
70126;SDS011;57491;42.694;23.314;2022-10-19T00:58:51;11.17;;;7.30;;
70126;SDS011;57491;42.694;23.314;2022-10-19T01:01:20;11.87;;;6.90;;
70126;SDS011;57491;42.694;23.314;2022-10-19T01:03:50;13.05;;;6.50;;
70126;SDS011;57491;42.694;23.314;2022-10-19T01:06:17;10.68;;;6.38;;
70126;SDS011;57491;42.694;23.314;2022-10-19T01:11:14;8.82;;;6.05;;
70126;SDS011;57491;42.694;23.314;2022-10-19T01:13:51;11.13;;;6.20;;
70126;SDS011;57491;42.694;23.314;2022-10-19T01:16:29;9.30;;;6.10;;
70126;SDS011;57491;42.694;23.314;2022-10-19T01:19:12;12.63;;;6.60;;
70126;SDS011;57491;42.694;23.314;2022-10-19T01:21:57;12.57;;;6.40;;
70126;SDS011;57491;42.694;23.314;2022-10-19T01:24:45;9.40;;;5.68;;
70126;SDS011;57491;42.694;23.314;2022-10-19T01:27:24;8.60;;;5.30;;
70126;SDS011;57491;42.694;23.314;2022-10-19T01:30:02;11.10;;;6.45;;
70126;SDS011;57491;42.694;23.314;2022-10-19T01:32:36;13.15;;;6.18;;
70126;SDS011;57491;42.694;23.314;2022-10-19T01:35:10;14.70;;;6.88;;
70126;SDS011;57491;42.694;23.314;2022-10-19T01:37:45;13.02;;;7.85;;
70126;SDS011;57491;42.694;23.314;2022-10-19T01:40:18;12.55;;;6.55;;
70126;SDS011;57491;42.694;23.314;2022-10-19T01:42:53;12.63;;;7.32;;
70126;SDS011;57491;42.694;23.314;2022-10-19T01:45:29;12.38;;;8.38;;
70126;SDS011;57491;42.694;23.314;2022-10-19T01:48:03;12.75;;;7.90;;
70126;SDS011;57491;42.694;23.314;2022-10-19T01:50:37;10.15;;;6.78;;
70126;SDS011;57491;42.694;23.314;2022-10-19T01:53:09;10.02;;;7.40;;
70126;SDS011;57491;42.694;23.314;2022-10-19T01:55:38;11.07;;;6.75;;
70126;SDS011;57491;42.694;23.314;2022-10-19T01:58:08;13.15;;;7.55;;
70126;SDS011;57491;42.694;23.314;2022-10-19T02:00:41;12.40;;;7.13;;
70126;SDS011;57491;42.694;23.314;2022-10-19T02:03:11;13.13;;;7.80;;
70126;SDS011;57491;42.694;23.314;2022-10-19T02:05:39;14.15;;;8.48;;
70126;SDS011;57491;42.694;23.314;2022-10-19T02:08:09;13.52;;;7.28;;
70126;SDS011;57491;42.694;23.314;2022-10-19T02:10:39;14.80;;;7.53;;
70126;SDS011;57491;42.694;23.314;2022-10-19T02:13:08;15.27;;;8.10;;
70126;SDS011;57491;42.694;23.314;2022-10-19T02:15:38;17.77;;;7.82;;
70126;SDS011;57491;42.694;23.314;2022-10-19T02:18:11;12.45;;;8.68;;
70126;SDS011;57491;42.694;23.314;2022-10-19T02:20:42;12.70;;;7.80;;
70126;SDS011;57491;42.694;23.314;2022-10-19T02:23:09;13.73;;;7.78;;
70126;SDS011;57491;42.694;23.314;2022-10-19T02:25:39;13.82;;;7.75;;
70126;SDS011;57491;42.694;23.314;2022-10-19T02:28:06;13.35;;;8.23;;
70126;SDS011;57491;42.694;23.314;2022-10-19T02:30:33;16.52;;;8.40;;
70126;SDS011;57491;42.694;23.314;2022-10-19T02:33:01;12.07;;;7.80;;
70126;SDS011;57491;42.694;23.314;2022-10-19T02:35:29;14.25;;;7.75;;
70126;SDS011;57491;42.694;23.314;2022-10-19T02:37:56;17.15;;;7.97;;
70126;SDS011;57491;42.694;23.314;2022-10-19T02:40:27;16.52;;;7.53;;
70126;SDS011;57491;42.694;23.314;2022-10-19T02:42:59;13.50;;;8.07;;
70126;SDS011;57491;42.694;23.314;2022-10-19T02:45:29;16.00;;;9.18;;
70126;SDS011;57491;42.694;23.314;2022-10-19T02:48:03;13.20;;;8.95;;
70126;SDS011;57491;42.694;23.314;2022-10-19T02:50:34;11.65;;;7.70;;
70126;SDS011;57491;42.694;23.314;2022-10-19T02:53:01;13.90;;;8.38;;
70126;SDS011;57491;42.694;23.314;2022-10-19T02:55:28;14.57;;;7.30;;
70126;SDS011;57491;42.694;23.314;2022-10-19T02:57:56;11.45;;;7.00;;
70126;SDS011;57491;42.694;23.314;2022-10-19T03:00:23;18.00;;;7.97;;
70126;SDS011;57491;42.694;23.314;2022-10-19T03:02:50;14.60;;;8.30;;
70126;SDS011;57491;42.694;23.314;2022-10-19T03:05:19;14.25;;;8.38;;
70126;SDS011;57491;42.694;23.314;2022-10-19T03:07:46;14.02;;;7.70;;
70126;SDS011;57491;42.694;23.314;2022-10-19T03:10:13;16.35;;;7.50;;
70126;SDS011;57491;42.694;23.314;2022-10-19T03:12:40;11.90;;;6.95;;
70126;SDS011;57491;42.694;23.314;2022-10-19T03:15:08;13.40;;;7.03;;
70126;SDS011;57491;42.694;23.314;2022-10-19T03:17:40;15.65;;;6.65;;
70126;SDS011;57491;42.694;23.314;2022-10-19T03:20:08;18.02;;;7.25;;
70126;SDS011;57491;42.694;23.314;2022-10-19T03:22:37;13.05;;;6.88;;
70126;SDS011;57491;42.694;23.314;2022-10-19T03:25:04;12.07;;;6.63;;
70126;SDS011;57491;42.694;23.314;2022-10-19T03:27:32;14.95;;;7.78;;
70126;SDS011;57491;42.694;23.314;2022-10-19T03:29:59;10.88;;;6.47;;
70126;SDS011;57491;42.694;23.314;2022-10-19T03:32:26;15.32;;;7.18;;
70126;SDS011;57491;42.694;23.314;2022-10-19T03:34:53;14.27;;;8.88;;
70126;SDS011;57491;42.694;23.314;2022-10-19T03:37:20;12.45;;;8.38;;
70126;SDS011;57491;42.694;23.314;2022-10-19T03:39:48;17.88;;;7.80;;
70126;SDS011;57491;42.694;23.314;2022-10-19T03:42:15;15.80;;;8.70;;
70126;SDS011;57491;42.694;23.314;2022-10-19T03:44:42;20.33;;;9.85;;
70126;SDS011;57491;42.694;23.314;2022-10-19T03:47:09;14.63;;;8.32;;
70126;SDS011;57491;42.694;23.314;2022-10-19T03:49:36;13.45;;;8.05;;
70126;SDS011;57491;42.694;23.314;2022-10-19T03:52:03;18.48;;;7.93;;
70126;SDS011;57491;42.694;23.314;2022-10-19T03:54:30;21.05;;;8.00;;
70126;SDS011;57491;42.694;23.314;2022-10-19T03:56:59;17.42;;;7.72;;
70126;SDS011;57491;42.694;23.314;2022-10-19T03:59:26;16.35;;;8.95;;
70126;SDS011;57491;42.694;23.314;2022-10-19T04:01:53;16.15;;;8.15;;
70126;SDS011;57491;42.694;23.314;2022-10-19T04:04:20;18.43;;;8.30;;
70126;SDS011;57491;42.694;23.314;2022-10-19T04:06:48;15.20;;;8.02;;
70126;SDS011;57491;42.694;23.314;2022-10-19T04:09:18;15.38;;;7.38;;
70126;SDS011;57491;42.694;23.314;2022-10-19T04:11:47;16.73;;;9.07;;
70126;SDS011;57491;42.694;23.314;2022-10-19T04:14:16;11.93;;;9.02;;
70126;SDS011;57491;42.694;23.314;2022-10-19T04:16:44;17.23;;;10.43;;
70126;SDS011;57491;42.694;23.314;2022-10-19T04:19:12;19.42;;;10.48;;
70126;SDS011;57491;42.694;23.314;2022-10-19T04:21:40;22.00;;;10.50;;
70126;SDS011;57491;42.694;23.314;2022-10-19T04:24:09;21.80;;;11.85;;
70126;SDS011;57491;42.694;23.314;2022-10-19T04:26:38;25.38;;;12.57;;
70126;SDS011;57491;42.694;23.314;2022-10-19T04:29:06;22.25;;;12.82;;
70126;SDS011;57491;42.694;23.314;2022-10-19T04:31:36;18.30;;;11.35;;
70126;SDS011;57491;42.694;23.314;2022-10-19T04:34:04;23.45;;;11.07;;
70126;SDS011;57491;42.694;23.314;2022-10-19T04:38:59;26.13;;;11.85;;
70126;SDS011;57491;42.694;23.314;2022-10-19T04:41:26;20.17;;;10.45;;
70126;SDS011;57491;42.694;23.314;2022-10-19T04:43:54;14.73;;;9.45;;
70126;SDS011;57491;42.694;23.314;2022-10-19T04:46:22;19.13;;;9.73;;
70126;SDS011;57491;42.694;23.314;2022-10-19T04:48:52;28.90;;;11.23;;
70126;SDS011;57491;42.694;23.314;2022-10-19T04:51:20;20.33;;;10.70;;
70126;SDS011;57491;42.694;23.314;2022-10-19T04:53:48;19.75;;;9.52;;
70126;SDS011;57491;42.694;23.314;2022-10-19T04:56:16;16.80;;;8.73;;
70126;SDS011;57491;42.694;23.314;2022-10-19T04:58:45;18.33;;;9.18;;
70126;SDS011;57491;42.694;23.314;2022-10-19T05:01:13;25.70;;;10.90;;
70126;SDS011;57491;42.694;23.314;2022-10-19T05:03:41;17.75;;;9.45;;
70126;SDS011;57491;42.694;23.314;2022-10-19T05:06:10;21.30;;;9.37;;
70126;SDS011;57491;42.694;23.314;2022-10-19T05:08:39;18.40;;;8.80;;
70126;SDS011;57491;42.694;23.314;2022-10-19T05:11:07;23.13;;;9.73;;
70126;SDS011;57491;42.694;23.314;2022-10-19T05:13:35;25.48;;;12.07;;
70126;SDS011;57491;42.694;23.314;2022-10-19T05:16:03;25.70;;;10.10;;
70126;SDS011;57491;42.694;23.314;2022-10-19T05:18:31;21.63;;;9.90;;
70126;SDS011;57491;42.694;23.314;2022-10-19T05:21:00;18.58;;;10.00;;
70126;SDS011;57491;42.694;23.314;2022-10-19T05:23:29;25.00;;;11.88;;
70126;SDS011;57491;42.694;23.314;2022-10-19T05:26:03;18.48;;;12.23;;
70126;SDS011;57491;42.694;23.314;2022-10-19T05:28:32;19.73;;;9.60;;
70126;SDS011;57491;42.694;23.314;2022-10-19T05:31:06;20.08;;;10.02;;
70126;SDS011;57491;42.694;23.314;2022-10-19T05:33:34;23.17;;;10.32;;
70126;SDS011;57491;42.694;23.314;2022-10-19T05:36:12;20.80;;;10.35;;
70126;SDS011;57491;42.694;23.314;2022-10-19T05:38:42;21.30;;;9.75;;
70126;SDS011;57491;42.694;23.314;2022-10-19T05:41:10;32.10;;;11.98;;
70126;SDS011;57491;42.694;23.314;2022-10-19T05:43:39;19.52;;;9.18;;
70126;SDS011;57491;42.694;23.314;2022-10-19T05:46:07;31.60;;;14.85;;
70126;SDS011;57491;42.694;23.314;2022-10-19T05:48:35;24.17;;;10.50;;
70126;SDS011;57491;42.694;23.314;2022-10-19T05:51:04;25.85;;;11.10;;
70126;SDS011;57491;42.694;23.314;2022-10-19T05:53:32;23.30;;;10.43;;
70126;SDS011;57491;42.694;23.314;2022-10-19T05:56:02;22.38;;;11.50;;
70126;SDS011;57491;42.694;23.314;2022-10-19T05:58:30;24.70;;;10.45;;
70126;SDS011;57491;42.694;23.314;2022-10-19T06:00:58;19.30;;;10.25;;
70126;SDS011;57491;42.694;23.314;2022-10-19T06:03:26;21.00;;;10.10;;
70126;SDS011;57491;42.694;23.314;2022-10-19T06:08:22;24.93;;;11.23;;
70126;SDS011;57491;42.694;23.314;2022-10-19T06:10:49;22.48;;;10.68;;
70126;SDS011;57491;42.694;23.314;2022-10-19T06:13:18;24.90;;;11.40;;
70126;SDS011;57491;42.694;23.314;2022-10-19T06:15:49;22.30;;;12.00;;
70126;SDS011;57491;42.694;23.314;2022-10-19T06:18:16;22.75;;;12.10;;
70126;SDS011;57491;42.694;23.314;2022-10-19T06:20:43;28.37;;;12.67;;
70126;SDS011;57491;42.694;23.314;2022-10-19T06:23:11;26.30;;;13.37;;
70126;SDS011;57491;42.694;23.314;2022-10-19T06:25:40;25.83;;;13.35;;
70126;SDS011;57491;42.694;23.314;2022-10-19T06:28:09;23.95;;;13.80;;
70126;SDS011;57491;42.694;23.314;2022-10-19T06:30:38;29.48;;;12.05;;
70126;SDS011;57491;42.694;23.314;2022-10-19T06:33:06;26.65;;;12.75;;
70126;SDS011;57491;42.694;23.314;2022-10-19T06:35:33;25.02;;;14.82;;
70126;SDS011;57491;42.694;23.314;2022-10-19T06:38:01;20.85;;;12.23;;
70126;SDS011;57491;42.694;23.314;2022-10-19T06:40:28;27.15;;;13.43;;
70126;SDS011;57491;42.694;23.314;2022-10-19T06:42:55;33.37;;;13.67;;
70126;SDS011;57491;42.694;23.314;2022-10-19T06:45:23;22.52;;;11.70;;
70126;SDS011;57491;42.694;23.314;2022-10-19T06:47:51;21.90;;;12.57;;
70126;SDS011;57491;42.694;23.314;2022-10-19T06:50:18;30.92;;;13.63;;
70126;SDS011;57491;42.694;23.314;2022-10-19T06:52:45;22.10;;;11.80;;
70126;SDS011;57491;42.694;23.314;2022-10-19T06:55:13;23.13;;;12.27;;
70126;SDS011;57491;42.694;23.314;2022-10-19T06:57:42;29.30;;;12.85;;
70126;SDS011;57491;42.694;23.314;2022-10-19T07:00:10;24.52;;;12.02;;
70126;SDS011;57491;42.694;23.314;2022-10-19T07:02:38;27.77;;;13.02;;
70126;SDS011;57491;42.694;23.314;2022-10-19T07:05:06;37.27;;;14.43;;
70126;SDS011;57491;42.694;23.314;2022-10-19T07:07:34;26.27;;;13.55;;
70126;SDS011;57491;42.694;23.314;2022-10-19T07:10:02;31.13;;;14.15;;
70126;SDS011;57491;42.694;23.314;2022-10-19T07:12:29;28.30;;;14.38;;
70126;SDS011;57491;42.694;23.314;2022-10-19T07:14:56;26.63;;;13.50;;
70126;SDS011;57491;42.694;23.314;2022-10-19T07:17:23;27.55;;;13.05;;
70126;SDS011;57491;42.694;23.314;2022-10-19T07:19:50;28.47;;;14.77;;
70126;SDS011;57491;42.694;23.314;2022-10-19T07:22:18;31.15;;;15.00;;
70126;SDS011;57491;42.694;23.314;2022-10-19T07:24:46;30.52;;;13.82;;
70126;SDS011;57491;42.694;23.314;2022-10-19T07:27:13;23.25;;;13.77;;
70126;SDS011;57491;42.694;23.314;2022-10-19T07:29:40;31.53;;;13.73;;
70126;SDS011;57491;42.694;23.314;2022-10-19T07:32:07;25.67;;;13.20;;
70126;SDS011;57491;42.694;23.314;2022-10-19T07:34:34;32.90;;;15.80;;
70126;SDS011;57491;42.694;23.314;2022-10-19T07:37:01;31.10;;;13.27;;
70126;SDS011;57491;42.694;23.314;2022-10-19T07:39:30;32.38;;;14.55;;
70126;SDS011;57491;42.694;23.314;2022-10-19T07:41:57;31.52;;;14.63;;
70126;SDS011;57491;42.694;23.314;2022-10-19T07:44:24;30.40;;;15.85;;
70126;SDS011;57491;42.694;23.314;2022-10-19T07:46:52;30.20;;;16.08;;
70126;SDS011;57491;42.694;23.314;2022-10-19T07:49:19;27.30;;;17.33;;
70126;SDS011;57491;42.694;23.314;2022-10-19T07:51:46;31.48;;;15.35;;
70126;SDS011;57491;42.694;23.314;2022-10-19T07:54:18;25.45;;;14.23;;
70126;SDS011;57491;42.694;23.314;2022-10-19T07:56:50;28.55;;;14.95;;
70126;SDS011;57491;42.694;23.314;2022-10-19T07:59:17;29.63;;;15.45;;
70126;SDS011;57491;42.694;23.314;2022-10-19T08:01:45;37.78;;;16.67;;
70126;SDS011;57491;42.694;23.314;2022-10-19T08:04:13;26.80;;;14.65;;
70126;SDS011;57491;42.694;23.314;2022-10-19T08:06:41;21.35;;;14.57;;
70126;SDS011;57491;42.694;23.314;2022-10-19T08:09:09;25.30;;;14.10;;
70126;SDS011;57491;42.694;23.314;2022-10-19T08:11:36;24.88;;;14.75;;
70126;SDS011;57491;42.694;23.314;2022-10-19T08:14:04;23.48;;;13.43;;
70126;SDS011;57491;42.694;23.314;2022-10-19T08:16:32;24.65;;;14.65;;
70126;SDS011;57491;42.694;23.314;2022-10-19T08:19:03;25.75;;;14.35;;
70126;SDS011;57491;42.694;23.314;2022-10-19T08:21:32;25.67;;;14.77;;
70126;SDS011;57491;42.694;23.314;2022-10-19T08:24:00;22.17;;;13.48;;
70126;SDS011;57491;42.694;23.314;2022-10-19T08:26:27;22.02;;;13.23;;
70126;SDS011;57491;42.694;23.314;2022-10-19T08:31:26;22.40;;;13.52;;
70126;SDS011;57491;42.694;23.314;2022-10-19T08:33:53;20.63;;;13.52;;
70126;SDS011;57491;42.694;23.314;2022-10-19T08:36:21;25.60;;;13.88;;
70126;SDS011;57491;42.694;23.314;2022-10-19T08:38:48;20.15;;;12.50;;
70126;SDS011;57491;42.694;23.314;2022-10-19T08:41:20;17.75;;;13.10;;
70126;SDS011;57491;42.694;23.314;2022-10-19T08:46:52;22.02;;;12.50;;
70126;SDS011;57491;42.694;23.314;2022-10-19T08:49:24;23.83;;;12.85;;
70126;SDS011;57491;42.694;23.314;2022-10-19T08:51:55;19.27;;;13.18;;
70126;SDS011;57491;42.694;23.314;2022-10-19T08:54:27;13.57;;;9.60;;
70126;SDS011;57491;42.694;23.314;2022-10-19T08:57:05;17.20;;;8.00;;
70126;SDS011;57491;42.694;23.314;2022-10-19T08:59:41;10.95;;;6.20;;
70126;SDS011;57491;42.694;23.314;2022-10-19T09:02:16;14.73;;;6.00;;
70126;SDS011;57491;42.694;23.314;2022-10-19T09:04:49;9.10;;;5.72;;
70126;SDS011;57491;42.694;23.314;2022-10-19T09:07:24;11.13;;;6.45;;
70126;SDS011;57491;42.694;23.314;2022-10-19T09:09:54;10.38;;;5.85;;
70126;SDS011;57491;42.694;23.314;2022-10-19T09:12:30;15.90;;;7.00;;
70126;SDS011;57491;42.694;23.314;2022-10-19T09:15:02;8.82;;;5.30;;
70126;SDS011;57491;42.694;23.314;2022-10-19T09:17:32;10.60;;;5.13;;
70126;SDS011;57491;42.694;23.314;2022-10-19T09:20:00;11.07;;;5.53;;
70126;SDS011;57491;42.694;23.314;2022-10-19T09:22:40;8.40;;;5.90;;
70126;SDS011;57491;42.694;23.314;2022-10-19T09:25:11;10.23;;;5.00;;
70126;SDS011;57491;42.694;23.314;2022-10-19T09:27:40;9.50;;;5.20;;
70126;SDS011;57491;42.694;23.314;2022-10-19T09:30:13;8.50;;;4.88;;
70126;SDS011;57491;42.694;23.314;2022-10-19T09:32:44;6.82;;;4.82;;
70126;SDS011;57491;42.694;23.314;2022-10-19T09:35:17;8.18;;;5.68;;
70126;SDS011;57491;42.694;23.314;2022-10-19T09:37:49;7.82;;;4.15;;
70126;SDS011;57491;42.694;23.314;2022-10-19T09:42:45;9.13;;;4.00;;
70126;SDS011;57491;42.694;23.314;2022-10-19T09:45:19;9.00;;;5.07;;
70126;SDS011;57491;42.694;23.314;2022-10-19T09:48:14;14.63;;;5.03;;
70126;SDS011;57491;42.694;23.314;2022-10-19T09:50:48;8.43;;;4.30;;
70126;SDS011;57491;42.694;23.314;2022-10-19T09:53:19;11.40;;;5.35;;
70126;SDS011;57491;42.694;23.314;2022-10-19T09:55:49;9.73;;;4.03;;
70126;SDS011;57491;42.694;23.314;2022-10-19T09:58:23;12.00;;;4.60;;
70126;SDS011;57491;42.694;23.314;2022-10-19T10:00:52;10.27;;;4.78;;
70126;SDS011;57491;42.694;23.314;2022-10-19T10:03:23;6.85;;;4.30;;
70126;SDS011;57491;42.694;23.314;2022-10-19T10:05:53;8.43;;;4.47;;
70126;SDS011;57491;42.694;23.314;2022-10-19T10:08:23;12.07;;;5.10;;
70126;SDS011;57491;42.694;23.314;2022-10-19T10:10:52;9.13;;;4.20;;
70126;SDS011;57491;42.694;23.314;2022-10-19T10:13:33;7.45;;;3.97;;
70126;SDS011;57491;42.694;23.314;2022-10-19T10:16:02;9.55;;;4.43;;
70126;SDS011;57491;42.694;23.314;2022-10-19T10:18:34;9.57;;;4.97;;
70126;SDS011;57491;42.694;23.314;2022-10-19T10:21:04;11.48;;;4.53;;
70126;SDS011;57491;42.694;23.314;2022-10-19T10:23:39;11.68;;;5.00;;
70126;SDS011;57491;42.694;23.314;2022-10-19T10:28:45;6.47;;;5.70;;
70126;SDS011;57491;42.694;23.314;2022-10-19T10:31:13;11.73;;;5.70;;
70126;SDS011;57491;42.694;23.314;2022-10-19T10:33:41;10.18;;;5.18;;
70126;SDS011;57491;42.694;23.314;2022-10-19T10:36:09;11.80;;;5.90;;
70126;SDS011;57491;42.694;23.314;2022-10-19T10:38:38;6.80;;;4.85;;
70126;SDS011;57491;42.694;23.314;2022-10-19T10:41:10;10.13;;;4.65;;
70126;SDS011;57491;42.694;23.314;2022-10-19T10:43:48;9.07;;;4.95;;
70126;SDS011;57491;42.694;23.314;2022-10-19T10:46:19;8.18;;;4.90;;
70126;SDS011;57491;42.694;23.314;2022-10-19T10:48:52;6.60;;;4.95;;
70126;SDS011;57491;42.694;23.314;2022-10-19T10:51:24;5.47;;;4.18;;
70126;SDS011;57491;42.694;23.314;2022-10-19T10:54:05;12.83;;;5.37;;
70126;SDS011;57491;42.694;23.314;2022-10-19T10:56:41;8.98;;;5.05;;
70126;SDS011;57491;42.694;23.314;2022-10-19T10:59:11;8.63;;;4.55;;
70126;SDS011;57491;42.694;23.314;2022-10-19T11:01:44;9.88;;;4.75;;
70126;SDS011;57491;42.694;23.314;2022-10-19T11:04:21;12.68;;;4.75;;
70126;SDS011;57491;42.694;23.314;2022-10-19T11:06:52;7.47;;;4.60;;
70126;SDS011;57491;42.694;23.314;2022-10-19T11:09:24;5.72;;;4.50;;
70126;SDS011;57491;42.694;23.314;2022-10-19T11:11:56;8.35;;;4.68;;
70126;SDS011;57491;42.694;23.314;2022-10-19T11:14:29;6.80;;;4.50;;
70126;SDS011;57491;42.694;23.314;2022-10-19T11:17:03;9.73;;;4.63;;
70126;SDS011;57491;42.694;23.314;2022-10-19T11:19:35;8.70;;;4.80;;
70126;SDS011;57491;42.694;23.314;2022-10-19T11:22:07;11.57;;;4.38;;
70126;SDS011;57491;42.694;23.314;2022-10-19T11:24:46;8.13;;;4.20;;
70126;SDS011;57491;42.694;23.314;2022-10-19T11:27:25;8.15;;;4.25;;
70126;SDS011;57491;42.694;23.314;2022-10-19T11:30:08;10.40;;;5.05;;
70126;SDS011;57491;42.694;23.314;2022-10-19T11:32:42;14.43;;;5.22;;
70126;SDS011;57491;42.694;23.314;2022-10-19T11:35:19;14.40;;;4.83;;
70126;SDS011;57491;42.694;23.314;2022-10-19T11:37:58;8.07;;;4.78;;
70126;SDS011;57491;42.694;23.314;2022-10-19T11:40:34;9.45;;;4.78;;
70126;SDS011;57491;42.694;23.314;2022-10-19T11:43:04;10.65;;;5.40;;
70126;SDS011;57491;42.694;23.314;2022-10-19T11:45:40;4.97;;;4.47;;
70126;SDS011;57491;42.694;23.314;2022-10-19T11:48:22;8.75;;;4.25;;
70126;SDS011;57491;42.694;23.314;2022-10-19T11:51:01;5.68;;;4.18;;
70126;SDS011;57491;42.694;23.314;2022-10-19T11:53:36;7.82;;;4.00;;
70126;SDS011;57491;42.694;23.314;2022-10-19T11:56:15;5.65;;;4.45;;
70126;SDS011;57491;42.694;23.314;2022-10-19T11:58:50;7.53;;;4.63;;
70126;SDS011;57491;42.694;23.314;2022-10-19T12:01:29;7.70;;;4.93;;
70126;SDS011;57491;42.694;23.314;2022-10-19T12:04:16;6.07;;;3.97;;
70126;SDS011;57491;42.694;23.314;2022-10-19T12:06:53;5.68;;;3.80;;
70126;SDS011;57491;42.694;23.314;2022-10-19T12:09:36;5.28;;;4.35;;
70126;SDS011;57491;42.694;23.314;2022-10-19T12:12:20;5.05;;;4.50;;
70126;SDS011;57491;42.694;23.314;2022-10-19T12:14:53;4.78;;;4.20;;
70126;SDS011;57491;42.694;23.314;2022-10-19T12:17:28;5.88;;;4.65;;
70126;SDS011;57491;42.694;23.314;2022-10-19T12:19:59;9.25;;;5.43;;
70126;SDS011;57491;42.694;23.314;2022-10-19T12:22:32;7.97;;;5.03;;
70126;SDS011;57491;42.694;23.314;2022-10-19T12:25:02;9.80;;;4.78;;
70126;SDS011;57491;42.694;23.314;2022-10-19T12:27:31;6.28;;;4.18;;
70126;SDS011;57491;42.694;23.314;2022-10-19T12:30:02;7.38;;;5.40;;
70126;SDS011;57491;42.694;23.314;2022-10-19T12:32:34;6.25;;;5.30;;
70126;SDS011;57491;42.694;23.314;2022-10-19T12:35:16;5.85;;;4.60;;
70126;SDS011;57491;42.694;23.314;2022-10-19T12:37:53;6.78;;;4.63;;
70126;SDS011;57491;42.694;23.314;2022-10-19T12:40:27;6.13;;;5.15;;
70126;SDS011;57491;42.694;23.314;2022-10-19T12:43:02;7.88;;;5.30;;
70126;SDS011;57491;42.694;23.314;2022-10-19T12:45:38;5.90;;;4.75;;
70126;SDS011;57491;42.694;23.314;2022-10-19T12:48:19;10.27;;;5.55;;
70126;SDS011;57491;42.694;23.314;2022-10-19T12:51:02;9.32;;;5.40;;
70126;SDS011;57491;42.694;23.314;2022-10-19T12:53:34;8.00;;;6.53;;
70126;SDS011;57491;42.694;23.314;2022-10-19T12:56:04;9.07;;;6.00;;
70126;SDS011;57491;42.694;23.314;2022-10-19T12:58:44;10.65;;;6.55;;
70126;SDS011;57491;42.694;23.314;2022-10-19T13:01:18;8.93;;;7.38;;
70126;SDS011;57491;42.694;23.314;2022-10-19T13:03:49;6.85;;;5.63;;
70126;SDS011;57491;42.694;23.314;2022-10-19T13:06:28;6.35;;;5.13;;
70126;SDS011;57491;42.694;23.314;2022-10-19T13:09:00;6.43;;;5.50;;
70126;SDS011;57491;42.694;23.314;2022-10-19T13:11:30;7.82;;;4.93;;
70126;SDS011;57491;42.694;23.314;2022-10-19T13:14:01;6.63;;;4.57;;
70126;SDS011;57491;42.694;23.314;2022-10-19T13:16:36;6.53;;;5.93;;
70126;SDS011;57491;42.694;23.314;2022-10-19T13:19:21;12.40;;;4.85;;
70126;SDS011;57491;42.694;23.314;2022-10-19T13:21:52;15.95;;;4.80;;
70126;SDS011;57491;42.694;23.314;2022-10-19T13:24:29;11.25;;;4.90;;
70126;SDS011;57491;42.694;23.314;2022-10-19T13:29:53;12.25;;;4.85;;
70126;SDS011;57491;42.694;23.314;2022-10-19T13:35:21;9.50;;;4.40;;
70126;SDS011;57491;42.694;23.314;2022-10-19T13:43:26;8.32;;;5.00;;
70126;SDS011;57491;42.694;23.314;2022-10-19T13:45:58;9.18;;;4.88;;
70126;SDS011;57491;42.694;23.314;2022-10-19T13:48:33;7.53;;;4.68;;
70126;SDS011;57491;42.694;23.314;2022-10-19T13:51:13;14.38;;;4.65;;
70126;SDS011;57491;42.694;23.314;2022-10-19T13:53:50;9.70;;;4.57;;
70126;SDS011;57491;42.694;23.314;2022-10-19T13:56:28;11.05;;;4.43;;
70126;SDS011;57491;42.694;23.314;2022-10-19T13:59:28;8.57;;;4.55;;
70126;SDS011;57491;42.694;23.314;2022-10-19T14:02:16;9.93;;;4.88;;
70126;SDS011;57491;42.694;23.314;2022-10-19T14:05:01;10.55;;;4.50;;
70126;SDS011;57491;42.694;23.314;2022-10-19T14:07:41;8.32;;;4.22;;
70126;SDS011;57491;42.694;23.314;2022-10-19T14:10:15;13.02;;;4.95;;
70126;SDS011;57491;42.694;23.314;2022-10-19T14:12:45;8.30;;;4.90;;
70126;SDS011;57491;42.694;23.314;2022-10-19T14:15:19;15.45;;;5.75;;
70126;SDS011;57491;42.694;23.314;2022-10-19T14:17:47;9.27;;;4.47;;
70126;SDS011;57491;42.694;23.314;2022-10-19T14:20:23;11.10;;;5.28;;
70126;SDS011;57491;42.694;23.314;2022-10-19T14:22:53;10.88;;;5.30;;
70126;SDS011;57491;42.694;23.314;2022-10-19T14:25:21;11.60;;;4.60;;
70126;SDS011;57491;42.694;23.314;2022-10-19T14:27:55;8.38;;;5.18;;
70126;SDS011;57491;42.694;23.314;2022-10-19T14:30:29;14.82;;;5.50;;
70126;SDS011;57491;42.694;23.314;2022-10-19T14:33:13;10.70;;;5.25;;
70126;SDS011;57491;42.694;23.314;2022-10-19T14:39:03;9.30;;;5.55;;
70126;SDS011;57491;42.694;23.314;2022-10-19T14:42:05;16.25;;;6.18;;
70126;SDS011;57491;42.694;23.314;2022-10-19T14:45:01;11.30;;;4.90;;
70126;SDS011;57491;42.694;23.314;2022-10-19T14:47:52;8.80;;;5.13;;
70126;SDS011;57491;42.694;23.314;2022-10-19T14:50:42;11.32;;;5.72;;
70126;SDS011;57491;42.694;23.314;2022-10-19T14:53:31;9.00;;;5.20;;
70126;SDS011;57491;42.694;23.314;2022-10-19T14:56:17;28.13;;;8.73;;
70126;SDS011;57491;42.694;23.314;2022-10-19T14:58:57;9.73;;;4.95;;
70126;SDS011;57491;42.694;23.314;2022-10-19T15:01:27;7.40;;;5.28;;
70126;SDS011;57491;42.694;23.314;2022-10-19T15:03:55;8.18;;;5.13;;
70126;SDS011;57491;42.694;23.314;2022-10-19T15:06:23;13.70;;;5.88;;
70126;SDS011;57491;42.694;23.314;2022-10-19T15:08:54;9.00;;;4.97;;
70126;SDS011;57491;42.694;23.314;2022-10-19T15:11:25;13.88;;;5.55;;
70126;SDS011;57491;42.694;23.314;2022-10-19T15:13:55;10.10;;;5.35;;
70126;SDS011;57491;42.694;23.314;2022-10-19T15:16:29;9.00;;;5.82;;
70126;SDS011;57491;42.694;23.314;2022-10-19T15:19:01;8.63;;;5.97;;
70126;SDS011;57491;42.694;23.314;2022-10-19T15:21:29;12.77;;;5.70;;
70126;SDS011;57491;42.694;23.314;2022-10-19T15:24:04;12.35;;;6.68;;